< < Back
Terminal Aerodrome Forecast


Current Version              Previous Versions:   1  2  3  4  5  6  7  8  9  

Terminal Aerodrome Forecast

634
FTUS42 KJAX 031356 AAC
TAFGNV
TAF AMD
KGNV 031356Z 0314/0412 11004KT 4SM BR OVC005
     FM031500 12007KT P6SM BKN010
     FM031530 14008KT P6SM SCT035
     FM040000 14005KT P6SM SCT035 BKN250
     FM040600 17004KT 3SM BR SCT003=

Latest METAR

001
SAUS70 KWBC 031600 RRD
MTRGNV
METAR KGNV 031553Z 13007KT 10SM SCT050 23/18 A3024 RMK AO2 SLP239
T02330178


USA.gov is the U.S. government's official web portal to all federal, state and local government web resources and services.